Time;durP1;ratioP1;P1;durP2;ratioP2;P2;SDS_P1;SDS_P2;PMS_P1;PMS_P2;Temp;Humidity;BMP_temperature;BMP_pressure;BME280_temperature;BME280_humidity;BME280_pressure;Samples;Min_cycle;Max_cycle;Signal;HPM_P1;HPM_P2
2023/09/02 00:01:31;;;;;;;6.37;5.77;;;14.20;99.90;;;;;;5035436;28;20456;-74
2023/09/02 00:03:57;;;;;;;5.90;5.40;;;14.20;99.90;;;;;;5035716;28;20179;-74
2023/09/02 00:06:23;;;;;;;6.03;5.60;;;14.10;99.90;;;;;;5034970;28;20237;-74
2023/09/02 00:08:48;;;;;;;6.60;5.30;;;14.00;99.90;;;;;;5035773;28;20271;-74
2023/09/02 00:11:14;;;;;;;6.50;5.90;;;14.00;99.90;;;;;;5035851;28;20174;-66
2023/09/02 00:13:40;;;;;;;9.70;5.83;;;13.90;99.90;;;;;;5035145;28;20237;-74
2023/09/02 00:16:05;;;;;;;6.57;5.97;;;13.90;99.90;;;;;;5034634;28;20203;-67
2023/09/02 00:18:31;;;;;;;6.40;5.80;;;13.80;99.90;;;;;;5043445;28;20651;-74
2023/09/02 00:20:57;;;;;;;5.77;5.27;;;13.80;99.90;;;;;;5053171;28;20224;-74
2023/09/02 00:23:22;;;;;;;8.03;5.90;;;13.80;99.90;;;;;;5041470;28;20214;-69
2023/09/02 00:25:48;;;;;;;6.33;5.83;;;13.80;99.90;;;;;;5054534;28;20225;-71
2023/09/02 00:28:14;;;;;;;8.10;5.93;;;13.70;99.90;;;;;;5055219;28;20586;-66
2023/09/02 00:30:39;;;;;;;6.00;5.50;;;13.70;99.90;;;;;;5054815;28;20175;-66
2023/09/02 00:33:05;;;;;;;6.83;6.03;;;13.70;99.90;;;;;;5052545;28;20183;-66
2023/09/02 00:35:32;;;;;;;8.47;6.80;;;13.70;99.90;;;;;;5054240;28;20236;-73
2023/09/02 00:37:57;;;;;;;5.60;5.07;;;13.60;99.90;;;;;;5053390;28;20519;-67
2023/09/02 00:40:26;;;;;;;8.53;6.57;;;13.60;99.90;;;;;;5054961;28;20406;-74
2023/09/02 00:42:55;;;;;;;6.10;5.60;;;13.60;99.90;;;;;;5055166;28;20612;-66
2023/09/02 00:45:23;;;;;;;7.40;6.70;;;13.60;99.90;;;;;;5053261;28;20524;-66
2023/09/02 00:47:50;;;;;;;8.00;6.80;;;13.50;99.90;;;;;;5052406;28;20489;-67
2023/09/02 00:50:16;;;;;;;7.83;7.00;;;13.50;99.90;;;;;;5055061;28;20817;-67
2023/09/02 00:52:41;;;;;;;9.47;6.67;;;13.50;99.90;;;;;;5054920;28;20398;-73
2023/09/02 00:55:08;;;;;;;7.30;6.63;;;13.50;99.90;;;;;;5053467;28;20408;-75
2023/09/02 00:57:35;;;;;;;8.00;7.30;;;13.50;99.90;;;;;;5053430;28;20217;-66
2023/09/02 01:00:04;;;;;;;8.17;7.20;;;13.50;99.90;;;;;;5054863;28;20402;-72
2023/09/02 01:02:30;;;;;;;8.80;7.90;;;13.50;99.90;;;;;;5052288;28;20460;-74
2023/09/02 01:04:58;;;;;;;7.83;7.10;;;13.50;99.90;;;;;;5034077;28;20434;-74
2023/09/02 01:07:25;;;;;;;6.60;5.93;;;13.40;99.90;;;;;;5033970;28;20425;-67
2023/09/02 01:09:51;;;;;;;6.70;6.20;;;13.40;99.90;;;;;;5034715;28;20402;-71
2023/09/02 01:12:17;;;;;;;9.00;6.73;;;13.40;99.90;;;;;;5034218;28;20614;-74
2023/09/02 01:14:43;;;;;;;6.90;6.30;;;13.40;99.90;;;;;;5033183;28;20768;-66
2023/09/02 01:17:09;;;;;;;6.53;6.03;;;13.30;99.90;;;;;;5046004;28;20989;-74
2023/09/02 01:19:38;;;;;;;8.00;7.20;;;13.30;99.90;;;;;;5054425;28;20376;-74
2023/09/02 01:22:16;;;;;;;7.13;6.53;;;13.20;99.90;;;;;;5054387;28;20420;-69
2023/09/02 01:24:41;;;;;;;8.03;7.30;;;13.20;99.90;;;;;;5054294;28;20412;-74
2023/09/02 01:27:13;;;;;;;7.03;6.43;;;13.20;99.90;;;;;;5034345;28;20480;-66
2023/09/02 01:30:06;;;;;;;9.20;7.77;;;13.20;99.90;;;;;;5034291;28;20412;-70
2023/09/02 01:32:39;;;;;;;9.30;8.40;;;13.20;99.90;;;;;;5046102;28;20468;-69
2023/09/02 01:35:07;;;;;;;12.63;7.97;;;13.20;99.90;;;;;;5051698;28;20424;-75
2023/09/02 01:37:45;;;;;;;12.13;9.97;;;13.30;99.90;;;;;;5053914;28;20461;-74
2023/09/02 01:40:15;;;;;;;10.60;9.47;;;13.40;99.90;;;;;;5052734;28;20471;-67
2023/09/02 01:42:42;;;;;;;9.93;8.93;;;13.40;99.90;;;;;;5052912;28;20410;-71
2023/09/02 01:45:10;;;;;;;10.30;9.30;;;13.40;99.90;;;;;;5042664;28;20438;-67
2023/09/02 01:47:37;;;;;;;9.43;8.43;;;13.40;99.90;;;;;;5046018;28;20552;-66
2023/09/02 01:50:06;;;;;;;9.67;8.70;;;13.50;99.90;;;;;;5053220;28;20400;-74
2023/09/02 01:52:32;;;;;;;10.07;8.60;;;13.50;99.90;;;;;;5053628;28;20416;-66
2023/09/02 01:54:58;;;;;;;10.40;9.43;;;13.50;99.90;;;;;;5053370;28;20811;-74
2023/09/02 01:57:24;;;;;;;11.37;10.17;;;13.50;99.90;;;;;;5032823;28;20551;-71
2023/09/02 01:59:50;;;;;;;10.67;8.50;;;13.50;99.90;;;;;;5033770;28;20194;-66
2023/09/02 02:02:16;;;;;;;9.73;8.87;;;13.50;99.90;;;;;;5041066;28;20515;-66
2023/09/02 02:04:49;;;;;;;13.93;8.87;;;13.50;99.90;;;;;;5053643;28;20170;-73
2023/09/02 02:07:15;;;;;;;9.17;8.27;;;13.50;99.90;;;;;;5052844;28;20570;-66
2023/09/02 02:09:47;;;;;;;9.70;8.70;;;13.40;99.90;;;;;;5052238;28;20504;-66
2023/09/02 02:12:14;;;;;;;17.73;10.10;;;13.40;99.90;;;;;;5053130;28;20463;-66
2023/09/02 02:14:40;;;;;;;12.07;8.53;;;13.40;99.90;;;;;;5053481;28;20424;-66
2023/09/02 02:17:06;;;;;;;11.10;9.60;;;13.40;99.90;;;;;;5050707;28;20543;-68
2023/09/02 02:19:33;;;;;;;10.93;9.60;;;13.40;99.90;;;;;;5053274;28;20519;-75
2023/09/02 02:21:59;;;;;;;10.43;9.20;;;13.40;99.90;;;;;;5053410;28;20492;-72
2023/09/02 02:24:25;;;;;;;10.60;9.00;;;13.40;99.90;;;;;;5053130;28;20493;-66
2023/09/02 02:26:51;;;;;;;11.10;9.07;;;13.40;99.90;;;;;;5039135;28;20555;-73
2023/09/02 02:29:17;;;;;;;11.07;9.90;;;13.40;99.90;;;;;;5032883;28;20424;-69
2023/09/02 02:31:42;;;;;;;10.40;8.60;;;13.30;99.90;;;;;;5031415;28;20415;-70
2023/09/02 02:34:08;;;;;;;10.03;9.03;;;13.30;99.90;;;;;;5052650;28;20228;-66
2023/09/02 02:36:34;;;;;;;12.97;10.00;;;13.30;99.90;;;;;;5052214;28;20230;-66
2023/09/02 02:38:59;;;;;;;11.30;9.50;;;13.30;99.90;;;;;;5052756;28;20187;-67
2023/09/02 02:41:25;;;;;;;12.00;9.90;;;13.30;99.90;;;;;;5052899;28;20509;-66
2023/09/02 02:43:51;;;;;;;12.60;9.20;;;13.30;99.90;;;;;;5036324;28;20261;-71
2023/09/02 02:46:17;;;;;;;13.27;10.83;;;13.30;99.90;;;;;;5052046;28;20167;-74
2023/09/02 02:48:42;;;;;;;12.10;10.00;;;13.20;99.90;;;;;;5040713;28;20296;-75
2023/09/02 02:51:09;;;;;;;16.43;11.30;;;13.20;99.90;;;;;;5031850;28;20256;-67
2023/09/02 02:53:34;;;;;;;11.87;10.67;;;13.20;99.90;;;;;;5032569;28;20198;-65
2023/09/02 02:56:03;;;;;;;13.80;9.73;;;13.20;99.90;;;;;;5032135;28;20842;-74
2023/09/02 02:58:29;;;;;;;17.13;12.60;;;13.20;99.90;;;;;;5035694;28;20277;-67
2023/09/02 03:01:05;;;;;;;13.80;11.00;;;13.20;99.90;;;;;;5052688;28;20797;-73
2023/09/02 03:03:32;;;;;;;16.03;11.60;;;13.20;99.90;;;;;;5039144;28;20433;-74
2023/09/02 03:06:02;;;;;;;16.27;11.30;;;13.20;99.90;;;;;;5032068;28;20398;-66
2023/09/02 03:08:28;;;;;;;14.90;11.67;;;13.20;99.90;;;;;;5032182;28;20426;-67
2023/09/02 03:10:58;;;;;;;14.57;11.93;;;13.20;99.90;;;;;;5032720;28;20402;-74
2023/09/02 03:13:24;;;;;;;18.20;13.03;;;13.20;99.90;;;;;;5032718;28;20168;-71
2023/09/02 03:15:53;;;;;;;16.13;12.73;;;13.20;99.90;;;;;;5037579;28;20444;-73
2023/09/02 03:18:19;;;;;;;20.50;14.80;;;13.10;99.90;;;;;;5034865;28;20937;-74
2023/09/02 03:20:45;;;;;;;18.37;13.90;;;13.10;99.90;;;;;;5032604;28;20395;-66
2023/09/02 03:23:11;;;;;;;21.70;15.27;;;13.10;99.90;;;;;;5032728;28;20387;-74
2023/09/02 03:25:37;;;;;;;22.77;16.80;;;13.10;99.90;;;;;;5030573;28;20641;-74
2023/09/02 03:28:04;;;;;;;23.50;15.70;;;13.10;99.90;;;;;;5032081;28;20422;-73
2023/09/02 03:30:30;;;;;;;20.73;15.23;;;13.00;99.90;;;;;;5040971;28;20428;-74
2023/09/02 03:32:56;;;;;;;19.70;14.93;;;13.00;99.90;;;;;;5050990;28;20929;-75
2023/09/02 03:35:21;;;;;;;21.10;15.70;;;13.00;99.90;;;;;;5050136;28;20387;-69
2023/09/02 03:37:47;;;;;;;23.03;17.00;;;13.00;99.90;;;;;;5052222;28;20202;-66
2023/09/02 03:40:13;;;;;;;22.23;15.80;;;13.00;99.90;;;;;;5052396;28;20710;-75
2023/09/02 03:42:38;;;;;;;19.97;15.00;;;12.90;99.90;;;;;;5052453;28;20167;-66
2023/09/02 03:45:05;;;;;;;20.23;15.00;;;12.90;99.90;;;;;;5035826;28;20659;-74
2023/09/02 03:47:31;;;;;;;19.43;14.20;;;12.90;99.90;;;;;;5035631;28;20559;-66
2023/09/02 03:50:00;;;;;;;21.23;14.93;;;12.90;99.90;;;;;;5052290;28;20417;-75
2023/09/02 03:52:26;;;;;;;23.30;16.13;;;12.80;99.90;;;;;;5051235;28;20419;-67
2023/09/02 03:54:51;;;;;;;19.83;15.00;;;12.80;99.90;;;;;;5051149;28;20392;-66
2023/09/02 03:57:17;;;;;;;22.77;15.90;;;12.80;99.90;;;;;;5051477;28;20205;-70
2023/09/02 03:59:43;;;;;;;20.40;14.33;;;12.70;99.90;;;;;;5052120;28;20167;-74
2023/09/02 04:02:08;;;;;;;18.70;13.73;;;12.70;99.90;;;;;;5034296;28;20180;-66
2023/09/02 04:04:34;;;;;;;18.23;14.10;;;12.70;99.90;;;;;;5031449;28;20200;-73
2023/09/02 04:07:00;;;;;;;17.87;15.30;;;12.60;99.90;;;;;;5033678;28;20247;-69
2023/09/02 04:09:25;;;;;;;18.03;12.80;;;12.50;99.90;;;;;;5035388;28;20274;-70
2023/09/02 04:11:51;;;;;;;17.03;12.50;;;12.50;99.90;;;;;;5035381;28;20183;-66
2023/09/02 04:14:17;;;;;;;16.30;13.53;;;12.50;99.90;;;;;;5034453;28;20168;-72
2023/09/02 04:16:43;;;;;;;15.93;12.33;;;12.50;99.90;;;;;;5037159;28;20205;-70
2023/09/02 04:19:08;;;;;;;24.70;14.17;;;12.40;99.90;;;;;;5043684;28;20260;-66
2023/09/02 04:21:34;;;;;;;19.97;14.90;;;12.40;99.90;;;;;;5035142;28;20159;-67
2023/09/02 04:24:00;;;;;;;18.10;14.47;;;12.40;99.90;;;;;;5035416;28;20175;-66
2023/09/02 04:26:26;;;;;;;21.07;15.97;;;12.30;99.90;;;;;;5034641;28;20160;-66
2023/09/02 04:28:55;;;;;;;22.20;14.60;;;12.30;99.90;;;;;;5035356;28;20919;-74
2023/09/02 04:31:22;;;;;;;24.63;13.40;;;12.30;99.90;;;;;;5045094;28;20670;-73
2023/09/02 04:33:48;;;;;;;17.40;13.57;;;12.30;99.90;;;;;;5055243;28;20393;-66
2023/09/02 04:36:14;;;;;;;16.60;12.23;;;12.30;99.90;;;;;;5054236;28;20458;-74
2023/09/02 04:38:40;;;;;;;16.40;12.27;;;12.20;99.90;;;;;;5055296;28;20453;-66
2023/09/02 04:41:08;;;;;;;13.00;10.97;;;12.20;99.90;;;;;;5054670;28;20229;-71
2023/09/02 04:43:35;;;;;;;16.77;12.90;;;12.20;99.90;;;;;;5055041;28;20163;-66
2023/09/02 04:46:04;;;;;;;19.93;12.77;;;12.20;99.90;;;;;;5052603;28;20436;-75
2023/09/02 04:48:30;;;;;;;21.10;12.47;;;12.10;99.90;;;;;;5054994;28;20410;-69
2023/09/02 04:50:56;;;;;;;15.50;12.20;;;12.10;99.90;;;;;;5053652;28;20829;-66
2023/09/02 04:53:22;;;;;;;17.40;13.33;;;12.10;99.90;;;;;;5055056;28;20488;-66
2023/09/02 04:55:49;;;;;;;18.13;13.93;;;12.10;99.90;;;;;;5052763;28;20460;-66
2023/09/02 04:58:16;;;;;;;17.50;13.90;;;12.10;99.90;;;;;;5051562;28;20936;-74
2023/09/02 05:00:42;;;;;;;18.47;13.30;;;12.20;99.90;;;;;;5035448;28;20480;-74
2023/09/02 05:03:11;;;;;;;19.97;14.23;;;12.30;99.90;;;;;;5033440;28;20518;-66
2023/09/02 05:05:37;;;;;;;21.83;14.90;;;12.40;99.90;;;;;;5033929;28;20164;-66
2023/09/02 05:08:03;;;;;;;17.67;13.77;;;12.50;99.90;;;;;;5034654;28;20393;-71
2023/09/02 05:10:29;;;;;;;23.60;14.27;;;12.60;99.90;;;;;;5034481;28;20180;-69
2023/09/02 05:12:55;;;;;;;19.43;13.77;;;12.70;99.90;;;;;;5037318;28;20425;-71
2023/09/02 05:15:20;;;;;;;20.23;14.60;;;12.80;99.90;;;;;;5053638;28;20471;-66
2023/09/02 05:17:46;;;;;;;18.00;14.90;;;12.80;99.90;;;;;;5054133;28;20278;-75
2023/09/02 05:20:12;;;;;;;18.30;14.43;;;12.80;99.90;;;;;;5053898;28;20169;-74
2023/09/02 05:22:38;;;;;;;19.70;14.07;;;12.90;99.90;;;;;;5054494;28;20683;-74
2023/09/02 05:25:04;;;;;;;20.67;14.70;;;12.90;99.90;;;;;;5053460;28;20364;-74
2023/09/02 05:27:30;;;;;;;18.00;14.10;;;13.00;99.90;;;;;;5052457;28;20229;-70
2023/09/02 05:29:56;;;;;;;17.20;14.57;;;13.00;1.00;;;;;;5039143;28;20426;-66
2023/09/02 05:32:22;;;;;;;18.97;14.60;;;13.00;1.00;;;;;;5033201;28;20467;-71
2023/09/02 05:34:48;;;;;;;17.83;12.97;;;13.10;1.00;;;;;;5032797;28;20171;-75
2023/09/02 05:37:14;;;;;;;17.87;12.83;;;13.10;1.00;;;;;;5031477;28;20559;-74
2023/09/02 05:39:40;;;;;;;20.77;14.97;;;13.20;1.00;;;;;;5034183;28;20374;-66
2023/09/02 05:42:05;;;;;;;18.93;13.63;;;13.20;1.00;;;;;;5034930;28;20200;-74
2023/09/02 05:44:34;;;;;;;18.10;13.07;;;13.30;1.00;;;;;;5033979;28;20406;-67
2023/09/02 05:47:00;;;;;;;15.80;12.87;;;13.30;1.00;;;;;;5032705;28;20403;-74
2023/09/02 05:49:25;;;;;;;16.83;13.53;;;13.40;1.00;;;;;;5053957;28;20484;-69
2023/09/02 05:51:51;;;;;;;22.40;13.17;;;13.30;1.00;;;;;;5053870;28;20183;-74
2023/09/02 05:54:17;;;;;;;16.10;12.53;;;13.30;1.00;;;;;;5053805;28;20170;-66
2023/09/02 05:56:42;;;;;;;12.83;11.53;;;13.40;1.00;;;;;;5049887;28;20536;-69
2023/09/02 05:59:08;;;;;;;15.47;12.13;;;13.40;1.00;;;;;;5034629;28;20207;-66
2023/09/02 06:01:34;;;;;;;13.53;12.10;;;13.40;1.00;;;;;;5033737;28;20175;-67
2023/09/02 06:04:00;;;;;;;14.63;11.43;;;13.50;1.00;;;;;;5032401;28;20175;-75
2023/09/02 06:06:25;;;;;;;15.13;12.70;;;13.60;1.00;;;;;;5032445;28;20224;-68
2023/09/02 06:08:53;;;;;;;15.37;11.57;;;13.70;1.00;;;;;;5032264;28;20210;-66
2023/09/02 06:11:19;;;;;;;13.53;10.97;;;13.70;1.00;;;;;;5032147;28;20186;-66
2023/09/02 06:13:45;;;;;;;12.57;10.60;;;13.80;1.00;;;;;;5043807;28;20797;-72
2023/09/02 06:16:10;;;;;;;14.70;11.10;;;13.90;1.00;;;;;;5038478;28;20211;-68
2023/09/02 06:18:36;;;;;;;11.13;9.70;;;13.90;1.00;;;;;;5039892;28;20226;-67
2023/09/02 06:21:12;;;;;;;13.60;10.60;;;14.00;1.00;;;;;;5037903;28;20171;-66
2023/09/02 06:23:42;;;;;;;12.63;10.17;;;14.00;1.00;;;;;;5036483;28;20627;-68
2023/09/02 06:26:08;;;;;;;13.67;11.00;;;14.10;1.00;;;;;;5050566;28;20429;-66
2023/09/02 06:28:34;;;;;;;11.57;9.10;;;14.10;1.00;;;;;;5039792;28;20461;-65
2023/09/02 06:31:05;;;;;;;11.43;10.00;;;14.30;1.00;;;;;;5039918;28;20209;-68
2023/09/02 06:33:31;;;;;;;12.43;10.17;;;14.40;1.00;;;;;;5042020;28;20175;-65
2023/09/02 06:35:57;;;;;;;11.70;9.83;;;14.50;1.00;;;;;;5032077;28;20430;-67
2023/09/02 06:38:23;;;;;;;16.13;10.33;;;14.60;10.50;;;;;;5045372;28;21194;-65
2023/09/02 06:40:49;;;;;;;12.77;10.93;;;14.60;18.20;;;;;;5039138;28;20183;-68
2023/09/02 06:43:14;;;;;;;13.00;10.27;;;14.70;26.80;;;;;;5035216;28;20179;-68
2023/09/02 06:45:40;;;;;;;10.87;8.67;;;14.80;37.10;;;;;;5033158;28;20178;-66
2023/09/02 06:48:06;;;;;;;9.23;8.27;;;14.80;37.00;;;;;;5032159;28;20210;-67
2023/09/02 06:50:32;;;;;;;11.30;8.90;;;14.90;40.80;;;;;;5031967;28;20191;-65
2023/09/02 06:52:57;;;;;;;12.40;9.03;;;15.00;54.80;;;;;;5045265;28;20437;-69
2023/09/02 06:55:23;;;;;;;9.60;8.60;;;15.10;62.80;;;;;;5037486;28;20182;-70
2023/09/02 06:57:49;;;;;;;9.23;8.30;;;15.20;66.90;;;;;;5038293;28;20293;-69
2023/09/02 07:00:15;;;;;;;9.57;8.10;;;15.30;68.60;;;;;;5037103;28;20578;-65
2023/09/02 07:02:42;;;;;;;9.53;8.53;;;15.40;68.10;;;;;;5032541;28;20293;-71
2023/09/02 07:05:08;;;;;;;8.60;7.80;;;15.40;64.70;;;;;;5045249;28;20171;-65
2023/09/02 07:07:36;;;;;;;8.00;7.20;;;15.50;64.10;;;;;;5032768;28;20473;-66
2023/09/02 07:10:03;;;;;;;11.90;8.30;;;15.60;64.30;;;;;;5032246;28;20926;-66
2023/09/02 07:12:29;;;;;;;10.47;7.97;;;15.70;61.50;;;;;;5033469;28;20442;-68
2023/09/02 07:14:54;;;;;;;9.60;7.50;;;15.80;59.50;;;;;;5033845;28;20505;-67
2023/09/02 07:17:20;;;;;;;8.60;7.73;;;15.80;51.90;;;;;;5030376;28;20260;-68
2023/09/02 07:19:46;;;;;;;12.03;8.13;;;15.90;38.20;;;;;;5032724;28;20290;-66
2023/09/02 07:22:12;;;;;;;7.40;6.80;;;16.00;38.30;;;;;;5032312;28;20513;-67
2023/09/02 07:24:37;;;;;;;8.47;7.60;;;16.10;38.40;;;;;;5037261;28;20743;-66
2023/09/02 07:27:04;;;;;;;6.57;6.07;;;16.20;27.70;;;;;;5032663;28;20191;-71
2023/09/02 07:29:29;;;;;;;8.50;7.70;;;16.20;7.20;;;;;;5042325;28;20187;-66
2023/09/02 07:31:58;;;;;;;6.90;6.40;;;16.30;1.00;;;;;;5042853;28;20526;-74
2023/09/02 07:34:24;;;;;;;6.60;6.00;;;16.30;1.00;;;;;;5035947;28;20437;-74
2023/09/02 07:36:49;;;;;;;7.83;6.00;;;16.50;1.00;;;;;;5031294;28;20830;-67
2023/09/02 07:39:16;;;;;;;7.10;6.40;;;16.50;1.00;;;;;;5033582;28;20207;-74
2023/09/02 07:41:42;;;;;;;6.90;6.20;;;16.60;1.00;;;;;;5034265;28;20198;-74
2023/09/02 07:44:09;;;;;;;5.60;5.10;;;16.70;1.00;;;;;;5036178;28;20433;-74
2023/09/02 07:46:34;;;;;;;6.43;5.77;;;16.80;1.00;;;;;;5035580;28;20513;-69
2023/09/02 07:49:00;;;;;;;5.10;4.60;;;16.80;1.00;;;;;;5036157;28;20934;-71
2023/09/02 07:51:26;;;;;;;7.00;5.57;;;16.90;1.00;;;;;;5034556;28;20223;-73
2023/09/02 07:53:52;;;;;;;5.63;4.50;;;17.00;1.00;;;;;;5036476;28;20207;-73
2023/09/02 07:56:17;;;;;;;5.30;4.37;;;17.10;1.00;;;;;;5035151;28;20555;-73
2023/09/02 07:58:46;;;;;;;5.40;4.27;;;17.20;1.00;;;;;;5035874;28;20263;-73
2023/09/02 08:01:12;;;;;;;5.47;4.97;;;17.30;1.00;;;;;;5035748;28;20178;-66
2023/09/02 08:03:38;;;;;;;4.50;3.43;;;17.40;1.00;;;;;;5035816;28;20410;-65
2023/09/02 08:06:06;;;;;;;3.83;3.53;;;17.40;1.00;;;;;;5035044;28;20168;-72
2023/09/02 08:08:32;;;;;;;4.07;3.67;;;17.50;1.00;;;;;;5037655;28;20201;-74
2023/09/02 08:11:07;;;;;;;4.03;3.60;;;17.70;1.00;;;;;;5035812;28;20406;-65
2023/09/02 08:13:34;;;;;;;4.00;3.60;;;17.80;1.00;;;;;;5035633;28;20667;-73
2023/09/02 08:16:04;;;;;;;5.20;4.70;;;17.80;1.00;;;;;;5034532;28;20410;-73
2023/09/02 08:18:29;;;;;;;3.13;2.93;;;17.90;99.90;;;;;;5035418;28;20422;-73
2023/09/02 08:20:55;;;;;;;3.90;3.60;;;17.90;99.90;;;;;;5035630;28;20490;-67
2023/09/02 08:23:21;;;;;;;3.53;3.23;;;18.00;99.90;;;;;;5035689;28;20544;-73
2023/09/02 08:25:46;;;;;;;2.80;2.60;;;18.10;99.90;;;;;;5033599;28;20171;-73
2023/09/02 08:28:12;;;;;;;3.23;3.03;;;18.20;99.90;;;;;;5035472;28;20195;-66
2023/09/02 08:30:41;;;;;;;4.43;2.30;;;18.30;99.90;;;;;;5040163;28;20614;-65
2023/09/02 08:33:07;;;;;;;2.50;2.30;;;18.30;99.90;;;;;;5052801;28;20266;-65
2023/09/02 08:35:36;;;;;;;2.53;2.33;;;18.50;99.90;;;;;;5053237;28;21040;-66
2023/09/02 08:38:03;;;;;;;3.07;2.63;;;18.60;99.90;;;;;;5045679;28;20312;-73
2023/09/02 08:40:29;;;;;;;2.20;2.00;;;18.70;99.90;;;;;;5055285;28;20978;-73
2023/09/02 08:42:56;;;;;;;4.07;2.27;;;18.90;99.90;;;;;;5055162;28;20412;-73
2023/09/02 08:45:22;;;;;;;2.77;2.57;;;19.00;99.90;;;;;;5054436;28;20866;-72
2023/09/02 08:47:53;;;;;;;2.23;2.03;;;19.20;99.90;;;;;;5053981;28;20949;-74
2023/09/02 08:50:20;;;;;;;1.93;1.83;;;19.40;99.90;;;;;;5054521;28;20790;-66
2023/09/02 08:52:46;;;;;;;2.80;2.50;;;19.50;86.20;;;;;;5050081;28;20945;-72
2023/09/02 08:55:13;;;;;;;2.60;2.20;;;19.50;41.30;;;;;;5034198;28;20406;-70
2023/09/02 08:57:39;;;;;;;2.27;2.07;;;19.60;18.30;;;;;;5034815;28;20214;-73
2023/09/02 09:00:06;;;;;;;2.47;2.10;;;19.80;16.60;;;;;;5034883;28;20457;-66
2023/09/02 09:02:36;;;;;;;2.67;2.13;;;19.90;14.00;;;;;;5034988;28;20470;-74
2023/09/02 09:05:03;;;;;;;1.97;1.87;;;20.00;1.00;;;;;;5033982;28;20442;-72
2023/09/02 09:07:29;;;;;;;2.50;2.30;;;20.10;1.00;;;;;;5033988;28;20461;-65
2023/09/02 09:10:01;;;;;;;5.00;2.70;;;20.20;1.00;;;;;;5035779;28;20544;-74
2023/09/02 09:12:29;;;;;;;2.60;2.40;;;20.40;1.00;;;;;;5034185;28;20445;-66
2023/09/02 09:14:58;;;;;;;2.43;2.03;;;20.70;1.00;;;;;;5037308;28;20437;-66
2023/09/02 09:17:25;;;;;;;3.80;2.93;;;20.90;1.00;;;;;;5035548;28;20493;-69
2023/09/02 09:19:52;;;;;;;3.40;2.10;;;21.10;1.00;;;;;;5044751;28;20453;-74
2023/09/02 09:22:18;;;;;;;3.90;2.20;;;21.30;1.00;;;;;;5032675;28;20954;-66
2023/09/02 09:24:44;;;;;;;2.40;2.20;;;21.40;1.00;;;;;;5042656;28;20429;-69
2023/09/02 09:27:10;;;;;;;2.27;2.07;;;21.60;1.00;;;;;;5033118;28;20763;-71
2023/09/02 09:29:40;;;;;;;2.83;2.20;;;21.90;1.00;;;;;;5033951;28;20248;-77
2023/09/02 09:32:14;;;;;;;2.57;2.37;;;22.20;1.00;;;;;;5034100;28;20175;-70
2023/09/02 09:34:44;;;;;;;2.30;2.10;;;22.60;1.00;;;;;;5042284;28;20429;-69
2023/09/02 09:37:10;;;;;;;2.27;2.07;;;22.80;1.00;;;;;;5049827;28;20461;-76
2023/09/02 09:39:43;;;;;;;4.73;3.17;;;23.00;1.00;;;;;;5044813;28;20791;-68
2023/09/02 09:42:12;;;;;;;2.47;2.27;;;23.40;1.00;;;;;;5033553;28;20439;-72
2023/09/02 09:44:57;;;;;;;2.33;1.90;;;23.50;1.00;;;;;;5034158;28;20398;-76
2023/09/02 09:47:25;;;;;;;2.50;2.30;;;23.60;1.00;;;;;;5032653;28;20454;-75
2023/09/02 09:49:52;;;;;;;3.60;2.20;;;23.90;1.00;;;;;;5033681;28;20474;-70
2023/09/02 09:52:19;;;;;;;1.80;1.70;;;23.60;1.00;;;;;;5045648;28;20443;-70
2023/09/02 09:54:51;;;;;;;3.83;2.10;;;23.60;1.00;;;;;;5045784;28;20450;-68
2023/09/02 09:57:36;;;;;;;4.70;1.70;;;23.60;1.00;;;;;;5033101;28;20458;-68
2023/09/02 10:00:07;;;;;;;1.83;1.73;;;23.10;1.00;;;;;;5033752;28;20430;-74
2023/09/02 10:02:34;;;;;;;9.30;2.00;;;22.90;1.00;;;;;;5033855;28;20425;-67
2023/09/02 10:05:01;;;;;;;2.17;1.97;;;22.40;1.00;;;;;;5032727;28;20985;-67
2023/09/02 10:07:32;;;;;;;1.80;1.70;;;22.00;1.00;;;;;;5033621;28;20457;-68
2023/09/02 10:10:05;;;;;;;1.60;1.50;;;22.10;1.00;;;;;;5048091;28;20481;-70
2023/09/02 10:12:34;;;;;;;2.30;1.97;;;22.70;1.00;;;;;;5033516;28;20472;-68
2023/09/02 10:15:01;;;;;;;3.37;2.60;;;23.00;1.00;;;;;;5033431;28;20426;-67
2023/09/02 10:17:27;;;;;;;2.30;2.10;;;23.40;1.00;;;;;;5032729;28;20466;-72
2023/09/02 10:19:53;;;;;;;3.33;2.50;;;24.00;1.00;;;;;;5032473;28;20425;-71
2023/09/02 10:22:21;;;;;;;3.60;2.30;;;24.30;1.00;;;;;;5036824;28;20429;-71
2023/09/02 10:24:55;;;;;;;2.47;2.27;;;24.70;1.00;;;;;;5050823;28;20171;-71
2023/09/02 10:27:26;;;;;;;2.07;1.97;;;24.80;1.00;;;;;;5032862;28;20948;-68
2023/09/02 10:29:56;;;;;;;3.60;2.23;;;25.00;1.00;;;;;;5033372;28;20402;-76
2023/09/02 10:32:26;;;;;;;1.80;1.70;;;25.30;1.00;;;;;;5032527;28;20433;-74
2023/09/02 10:35:00;;;;;;;5.63;2.00;;;25.40;1.00;;;;;;5031909;28;20861;-69
2023/09/02 10:37:37;;;;;;;2.73;1.60;;;25.50;1.00;;;;;;5041821;28;20461;-75
2023/09/02 10:40:09;;;;;;;3.00;2.70;;;25.80;1.00;;;;;;5034149;28;20488;-68
2023/09/02 10:42:36;;;;;;;1.97;1.47;;;25.90;1.00;;;;;;5053045;28;20425;-68
2023/09/02 10:45:02;;;;;;;2.10;2.00;;;25.70;99.90;;;;;;5042378;28;20433;-75
2023/09/02 10:47:27;;;;;;;2.20;2.00;;;25.80;99.90;;;;;;5032074;28;20454;-75
2023/09/02 10:49:54;;;;;;;2.13;1.70;;;25.90;99.90;;;;;;5032953;28;20430;-75
2023/09/02 10:52:20;;;;;;;2.17;1.97;;;26.00;99.90;;;;;;5042495;28;20262;-71
2023/09/02 10:55:04;;;;;;;2.40;1.67;;;26.10;99.90;;;;;;5051656;28;20504;-69
2023/09/02 10:57:50;;;;;;;1.50;1.40;;;26.30;99.90;;;;;;5053051;28;20206;-68
2023/09/02 11:00:18;;;;;;;2.40;1.93;;;26.30;99.90;;;;;;5049038;28;20438;-74
2023/09/02 11:02:45;;;;;;;5.20;2.20;;;26.10;99.90;;;;;;5035120;28;20434;-69
2023/09/02 11:05:11;;;;;;;1.80;1.70;;;26.30;99.90;;;;;;5031991;28;20425;-74
2023/09/02 11:07:39;;;;;;;2.17;1.97;;;26.60;99.90;;;;;;5044515;28;20459;-75
2023/09/02 11:10:09;;;;;;;3.33;1.53;;;27.00;99.90;;;;;;5052289;28;20759;-68
2023/09/02 11:13:04;;;;;;;3.00;1.80;;;27.20;99.90;;;;;;5032659;28;20430;-68
2023/09/02 11:15:31;;;;;;;2.03;1.67;;;27.20;99.90;;;;;;5033526;28;20461;-71
2023/09/02 11:18:17;;;;;;;2.73;1.60;;;27.40;99.90;;;;;;5036874;28;20962;-68
2023/09/02 11:20:49;;;;;;;1.87;1.43;;;27.30;99.90;;;;;;5036594;28;20425;-68
2023/09/02 11:23:21;;;;;;;1.67;1.57;;;27.50;99.90;;;;;;5051647;28;20456;-73
2023/09/02 11:26:03;;;;;;;2.00;1.27;;;27.80;99.90;;;;;;5048733;28;20430;-71
2023/09/02 11:28:29;;;;;;;1.50;1.27;;;28.20;99.90;;;;;;5036742;28;20433;-75
2023/09/02 11:31:03;;;;;;;1.70;1.33;;;28.40;99.90;;;;;;5035999;28;20442;-69
2023/09/02 11:33:28;;;;;;;6.73;4.60;;;28.40;99.90;;;;;;5036769;28;20463;-75
2023/09/02 11:36:12;;;;;;;7.73;2.10;;;28.20;99.90;;;;;;5034856;28;20505;-67
2023/09/02 11:38:38;;;;;;;2.17;1.80;;;28.00;99.90;;;;;;5048229;28;20214;-68
2023/09/02 11:41:04;;;;;;;1.40;1.20;;;28.10;99.90;;;;;;5042073;28;20433;-72
2023/09/02 11:43:31;;;;;;;1.83;1.37;;;28.20;99.90;;;;;;5056492;28;20182;-67
2023/09/02 11:45:59;;;;;;;1.40;1.23;;;28.10;99.90;;;;;;5045467;28;20176;-69
2023/09/02 11:48:29;;;;;;;1.50;1.23;;;28.50;99.90;;;;;;5035347;28;20779;-68
2023/09/02 11:50:58;;;;;;;1.70;1.30;;;28.50;99.90;;;;;;5036346;28;20533;-74
2023/09/02 11:53:31;;;;;;;1.93;1.67;;;28.30;99.90;;;;;;5048556;28;20436;-68
2023/09/02 11:55:57;;;;;;;1.27;1.13;;;26.80;99.90;;;;;;5051697;28;20449;-74
2023/09/02 11:58:24;;;;;;;1.50;1.40;;;26.50;99.90;;;;;;5044680;28;20472;-74
2023/09/02 12:00:50;;;;;;;1.60;1.50;;;26.60;99.90;;;;;;5047855;28;20430;-70
2023/09/02 12:03:27;;;;;;;1.67;1.43;;;26.10;99.90;;;;;;5036124;28;20744;-70
2023/09/02 12:05:56;;;;;;;1.60;1.50;;;26.00;99.90;;;;;;5034458;28;20440;-71
2023/09/02 12:08:22;;;;;;;1.43;1.33;;;25.90;99.90;;;;;;5036007;28;20772;-69
2023/09/02 12:10:49;;;;;;;2.23;1.63;;;25.80;99.90;;;;;;5034842;28;20407;-68
2023/09/02 12:13:16;;;;;;;1.90;1.60;;;26.00;99.90;;;;;;5037185;28;20187;-68
2023/09/02 12:15:46;;;;;;;1.73;1.63;;;25.80;99.90;;;;;;5035439;28;20438;-68
2023/09/02 12:18:12;;;;;;;1.73;1.63;;;25.80;99.90;;;;;;5053697;28;20453;-71
2023/09/02 12:20:38;;;;;;;3.53;1.57;;;25.80;99.90;;;;;;5043565;28;20517;-74
2023/09/02 12:23:05;;;;;;;1.60;1.40;;;25.80;99.90;;;;;;5053612;28;20585;-69
2023/09/02 12:25:33;;;;;;;1.47;1.37;;;26.00;99.90;;;;;;5054751;28;20167;-74
2023/09/02 12:28:14;;;;;;;1.50;1.40;;;26.10;99.90;;;;;;5037466;28;20462;-74
2023/09/02 12:30:40;;;;;;;1.50;1.40;;;26.50;99.90;;;;;;5035260;28;20461;-74
2023/09/02 12:33:06;;;;;;;1.60;1.50;;;26.50;99.90;;;;;;5035050;28;20402;-70
2023/09/02 12:35:32;;;;;;;1.40;1.30;;;26.60;99.90;;;;;;5038404;28;21005;-72
2023/09/02 12:38:09;;;;;;;1.47;1.30;;;27.00;99.90;;;;;;5037156;28;20215;-68
2023/09/02 12:40:35;;;;;;;1.87;1.70;;;27.60;99.90;;;;;;5034171;28;20904;-69
2023/09/02 12:43:02;;;;;;;2.20;1.50;;;28.00;99.90;;;;;;5048237;28;20433;-71
2023/09/02 12:45:32;;;;;;;2.07;1.87;;;28.70;99.90;;;;;;5050662;28;20171;-74